Terminal Aerodrome Forecast
Issued by NWS Charleston, WV

Current Version | Previous Version | Graphics & Text | Print | Product List | Glossary On
Versions: 1 2 3 4 5 6 7 8 9 10 11 12 13 14 15 16 17 18 19 20 21 22 23
000
FTUS41 KRLX 271736
TAFCRW
TAF
KCRW 271736Z 2718/2818 VRB03KT P6SM BKN045
     FM272000 04006KT P6SM SCT050
     FM272300 00000KT P6SM SKC
     FM280800 00000KT 4SM BR SCT001
     FM280900 00000KT 1/2SM FG BKN001
     FM281300 VRB03KT 4SM BR SCT005
     FM281400 VRB03KT P6SM SKC
     FM281700 VRB03KT P6SM SCT045=

USA.gov is the U.S. government's official web portal to all federal, state and local government web resources and services.